PWSweather.com
Personal Weather Stations
Station Observations
VPOKROGLO
Kal Nad Kanalom, PrimorskaSI

Kal Nad KanalomPrimorskaSI

Lat: 46.072, Lon: 13.734

Elevation: 2526

Station Type: WS-2355

http://www.okroglovreme.com

Latest ConditionsUpdated 10:30:00 PM GMT+01:01 Friday, Feb 24, 2017
Currently Today's Max Today's Min Today's Average
Temperature 32.7°F0.4°C 43.3°F6.3°C 32.7°F0.4°C 39.8°F4.3°C
Dew Point 30.7°F-0.7°C 41.2°F5.1°C 30.7°F-0.7°C 37.7°F3.2°C
Winds 2.0 mph E3.2 kmh E 14.3 mph SSW23.0 kmh SSW - 8.0 mph 12.9 kmh
Wind Gusts 8.5 mph13.7 kmh 26.2 mph42.2 kmh - -
Humidity 92% 92% 92% 92%
Pressure 30.00 in1015.9 mb 30.00 in1015.9 mb 29.80 in1009.1 mb -
Precipitation - 0.96 in24.4 mm - -
Hour Temp Dew Point Humidity Winds Wind Gusts Pressure Precip Precip Rate Daily Precip Total
10:30 PM 32.7°F0.4°C 30.7°F-0.7°C 92% 2.0 mph E3.2 kmh E 8.5 mph13.7 kmh 30.00 in1015.9 mb 0.00 in0.0 mm 0.00 in0.0 mm 0.96 in24.4 mm
10:15 PM 32.7°F0.4°C 30.7°F-0.7°C 92% 2.1 mph E3.4 kmh E 6.5 mph10.5 kmh 29.99 in1015.6 mb 0.00 in0.0 mm 0.00 in0.0 mm 0.96 in24.4 mm
10:00 PM 32.7°F0.4°C 30.7°F-0.7°C 92% 2.3 mph E3.7 kmh E 9.8 mph15.8 kmh 29.97 in1014.9 mb 0.00 in0.0 mm 0.00 in0.0 mm 0.96 in24.4 mm
09:45 PM 32.7°F0.4°C 30.7°F-0.7°C 92% 2.0 mph E3.2 kmh E 6.9 mph11.1 kmh 29.97 in1014.9 mb 0.00 in0.0 mm 0.00 in0.0 mm 0.96 in24.4 mm
09:30 PM 32.7°F0.4°C 30.7°F-0.7°C 92% 2.4 mph E3.9 kmh E 9.2 mph14.8 kmh 29.96 in1014.6 mb 0.00 in0.0 mm 0.00 in0.0 mm 0.96 in24.4 mm
09:15 PM 32.7°F0.4°C 30.7°F-0.7°C 92% 2.2 mph E3.5 kmh E 5.8 mph9.3 kmh 29.96 in1014.6 mb 0.00 in0.0 mm 0.00 in0.0 mm 0.96 in24.4 mm
09:00 PM 32.7°F0.4°C 30.7°F-0.7°C 92% 2.3 mph SE3.7 kmh SE 6.0 mph9.7 kmh 29.95 in1014.2 mb 0.00 in0.0 mm 0.00 in0.0 mm 0.96 in24.4 mm
08:45 PM 32.7°F0.4°C 30.7°F-0.7°C 92% 3.3 mph SE5.3 kmh SE 8.3 mph13.4 kmh 29.94 in1013.9 mb 0.00 in0.0 mm 0.00 in0.0 mm 0.96 in24.4 mm
08:30 PM 32.7°F0.4°C 30.7°F-0.7°C 92% 3.3 mph SE5.3 kmh SE 7.2 mph11.6 kmh 29.93 in1013.5 mb 0.00 in0.0 mm 0.00 in0.0 mm 0.96 in24.4 mm
08:15 PM 32.9°F0.5°C 30.8°F-0.7°C 92% 2.3 mph ESE3.7 kmh ESE 8.5 mph13.7 kmh 29.92 in1013.2 mb 0.00 in0.0 mm 0.00 in0.0 mm 0.96 in24.4 mm
08:00 PM 33.1°F0.6°C 31.0°F-0.6°C 92% 2.3 mph E3.7 kmh E 6.3 mph10.1 kmh 29.92 in1013.2 mb 0.00 in0.0 mm 0.00 in0.0 mm 0.96 in24.4 mm
07:45 PM 33.4°F0.8°C 31.4°F-0.3°C 92% 4.3 mph NE6.9 kmh NE 10.3 mph16.6 kmh 29.91 in1012.9 mb 0.00 in0.0 mm 0.00 in0.0 mm 0.96 in24.4 mm
07:30 PM 33.4°F0.8°C 31.4°F-0.3°C 92% 3.8 mph E6.1 kmh E 13.6 mph21.9 kmh 29.90 in1012.5 mb 0.04 in1.0 mm 0.00 in0.0 mm 0.96 in24.4 mm
07:15 PM 33.6°F0.9°C 31.5°F-0.3°C 92% 3.9 mph NE6.3 kmh NE 10.5 mph16.9 kmh 29.90 in1012.5 mb 0.08 in2.0 mm 0.00 in0.0 mm 0.96 in24.4 mm
07:00 PM 34.0°F1.1°C 31.9°F-0.1°C 92% 4.8 mph ENE7.7 kmh ENE 12.5 mph20.1 kmh 29.88 in1011.9 mb 0.08 in2.0 mm 0.00 in0.0 mm 0.96 in24.4 mm
06:45 PM 34.3°F1.3°C 32.3°F0.2°C 92% 5.3 mph NE8.5 kmh NE 14.1 mph22.7 kmh 29.87 in1011.5 mb 0.14 in3.6 mm 0.00 in0.0 mm 0.96 in24.4 mm
06:30 PM 35.2°F1.8°C 33.1°F0.6°C 92% 5.7 mph NE9.2 kmh NE 15.7 mph25.3 kmh 29.86 in1011.2 mb 0.14 in3.6 mm 0.00 in0.0 mm 0.92 in23.4 mm
06:15 PM 36.3°F2.4°C 34.2°F1.2°C 92% 5.6 mph NE9.0 kmh NE 17.4 mph28.0 kmh 29.86 in1011.2 mb 0.17 in4.3 mm 0.00 in0.0 mm 0.88 in22.4 mm
06:00 PM 37.0°F2.8°C 34.9°F1.6°C 92% 4.9 mph NNE7.9 kmh NNE 17.2 mph27.7 kmh 29.86 in1011.2 mb 0.29 in7.4 mm 0.01 in0.3 mm 0.88 in22.4 mm
05:45 PM 37.9°F3.3°C 35.8°F2.1°C 92% 3.3 mph N5.3 kmh N 8.9 mph14.3 kmh 29.84 in1010.5 mb 0.28 in7.1 mm 0.00 in0.0 mm 0.82 in20.8 mm
05:30 PM 39.0°F3.9°C 36.9°F2.7°C 92% 3.8 mph N6.1 kmh N 9.8 mph15.8 kmh 29.83 in1010.2 mb 0.31 in7.9 mm 0.00 in0.0 mm 0.78 in19.8 mm
05:15 PM 40.5°F4.7°C 38.3°F3.5°C 92% 1.9 mph NNE3.1 kmh NNE 6.9 mph11.1 kmh 29.83 in1010.2 mb 0.33 in8.4 mm 0.20 in5.1 mm 0.71 in18.0 mm
05:00 PM 42.1°F5.6°C 39.9°F4.4°C 92% 1.1 mph SSW1.8 kmh SSW 3.1 mph5.0 kmh 29.82 in1009.8 mb 0.28 in7.1 mm 0.08 in2.0 mm 0.59 in15.0 mm
04:45 PM 42.1°F5.6°C 39.9°F4.4°C 92% 0.8 mph SW1.3 kmh SW 4.7 mph7.6 kmh 29.82 in1009.8 mb 0.22 in5.6 mm 0.24 in6.1 mm 0.53 in13.5 mm
04:30 PM 41.5°F5.3°C 39.4°F4.1°C 92% 2.0 mph NE3.2 kmh NE 3.8 mph6.1 kmh 29.82 in1009.8 mb 0.16 in4.1 mm 0.32 in8.1 mm 0.47 in11.9 mm
04:15 PM 41.9°F5.5°C 39.7°F4.3°C 92% 1.7 mph NW2.7 kmh NW 6.3 mph10.1 kmh 29.82 in1009.8 mb 0.08 in2.0 mm 0.24 in6.1 mm 0.39 in9.9 mm
04:00 PM 43.2°F6.2°C 41.0°F5.0°C 92% 9.2 mph S14.8 kmh S 15.7 mph25.3 kmh 29.81 in1009.5 mb 0.02 in0.5 mm 0.00 in0.0 mm 0.31 in7.9 mm
03:45 PM 43.3°F6.3°C 41.2°F5.1°C 92% 11.1 mph S17.9 kmh S 17.7 mph28.5 kmh 29.80 in1009.1 mb 0.04 in1.0 mm 0.00 in0.0 mm 0.31 in7.9 mm
03:30 PM 43.2°F6.2°C 41.0°F5.0°C 92% 10.4 mph S16.7 kmh S 15.4 mph24.8 kmh 29.80 in1009.1 mb 0.08 in2.0 mm 0.00 in0.0 mm 0.31 in7.9 mm
03:15 PM 43.0°F6.1°C 40.8°F4.9°C 92% 9.7 mph SSW15.6 kmh SSW 18.3 mph29.5 kmh 29.81 in1009.5 mb 0.10 in2.5 mm 0.08 in2.0 mm 0.31 in7.9 mm
03:00 PM 43.0°F6.1°C 40.8°F4.9°C 92% 8.7 mph SSW14.0 kmh SSW 14.1 mph22.7 kmh 29.81 in1009.5 mb 0.08 in2.0 mm 0.00 in0.0 mm 0.29 in7.4 mm
02:45 PM 43.0°F6.1°C 40.8°F4.9°C 92% 7.1 mph SSW11.4 kmh SSW 14.5 mph23.3 kmh 29.82 in1009.8 mb 0.08 in2.0 mm 0.16 in4.1 mm 0.27 in6.9 mm
02:30 PM 43.0°F6.1°C 40.8°F4.9°C 92% 8.6 mph SSW13.8 kmh SSW 15.7 mph25.3 kmh 29.82 in1009.8 mb 0.04 in1.0 mm 0.08 in2.0 mm 0.22 in5.6 mm
02:15 PM 43.0°F6.1°C 40.8°F4.9°C 92% 12.3 mph S19.8 kmh S 18.1 mph29.1 kmh 29.82 in1009.8 mb 0.02 in0.5 mm 0.00 in0.0 mm 0.20 in5.1 mm
02:00 PM 42.8°F6.0°C 40.6°F4.8°C 92% 12.5 mph S20.1 kmh S 17.9 mph28.8 kmh 29.82 in1009.8 mb 0.04 in1.0 mm 0.00 in0.0 mm 0.20 in5.1 mm
01:45 PM 42.6°F5.9°C 40.5°F4.7°C 92% 11.6 mph S18.7 kmh S 17.9 mph28.8 kmh 29.83 in1010.2 mb 0.04 in1.0 mm 0.00 in0.0 mm 0.18 in4.6 mm
01:30 PM 42.4°F5.8°C 40.3°F4.6°C 92% 8.2 mph S13.2 kmh S 15.7 mph25.3 kmh 29.83 in1010.2 mb 0.06 in1.5 mm 0.00 in0.0 mm 0.18 in4.6 mm
01:15 PM 42.6°F5.9°C 40.5°F4.7°C 92% 10.3 mph S16.6 kmh S 16.6 mph26.7 kmh 29.84 in1010.5 mb 0.06 in1.5 mm 0.00 in0.0 mm 0.18 in4.6 mm
01:00 PM 42.6°F5.9°C 40.5°F4.7°C 92% 7.7 mph SSW12.4 kmh SSW 15.9 mph25.6 kmh 29.84 in1010.5 mb 0.06 in1.5 mm 0.03 in0.8 mm 0.16 in4.1 mm
12:45 PM 42.4°F5.8°C 40.3°F4.6°C 92% 12.2 mph S19.6 kmh S 19.0 mph30.6 kmh 29.84 in1010.5 mb 0.04 in1.0 mm 0.00 in0.0 mm 0.14 in3.6 mm
12:30 PM 42.4°F5.8°C 40.3°F4.6°C 92% 13.1 mph S21.1 kmh S 22.4 mph36.0 kmh 29.84 in1010.5 mb 0.04 in1.0 mm 0.00 in0.0 mm 0.12 in3.0 mm
12:15 PM 42.4°F5.8°C 40.3°F4.6°C 92% 12.8 mph S20.6 kmh S 19.5 mph31.4 kmh 29.85 in1010.8 mb 0.06 in1.5 mm 0.08 in2.0 mm 0.12 in3.0 mm
12:00 PM 42.4°F5.8°C 40.3°F4.6°C 92% 11.7 mph S18.8 kmh S 16.8 mph27.0 kmh 29.85 in1010.8 mb 0.04 in1.0 mm 0.00 in0.0 mm 0.10 in2.5 mm
11:45 AM 42.4°F5.8°C 40.3°F4.6°C 92% 9.5 mph SSW15.3 kmh SSW 17.7 mph28.5 kmh 29.85 in1010.8 mb 0.06 in1.5 mm 0.08 in2.0 mm 0.10 in2.5 mm
11:30 AM 42.4°F5.8°C 40.3°F4.6°C 92% 10.7 mph S17.2 kmh S 17.2 mph27.7 kmh 29.86 in1011.2 mb 0.04 in1.0 mm 0.00 in0.0 mm 0.08 in2.0 mm
11:15 AM 42.1°F5.6°C 39.9°F4.4°C 92% 12.2 mph S19.6 kmh S 18.1 mph29.1 kmh 29.86 in1011.2 mb 0.04 in1.0 mm 0.00 in0.0 mm 0.06 in1.5 mm
11:00 AM 41.9°F5.5°C 39.7°F4.3°C 92% 12.0 mph S19.3 kmh S 17.7 mph28.5 kmh 29.86 in1011.2 mb 0.04 in1.0 mm 0.03 in0.8 mm 0.06 in1.5 mm
10:45 AM 41.9°F5.5°C 39.7°F4.3°C 92% 12.4 mph S20.0 kmh S 18.1 mph29.1 kmh 29.86 in1011.2 mb 0.02 in0.5 mm 0.00 in0.0 mm 0.04 in1.0 mm
10:30 AM 41.7°F5.4°C 39.6°F4.2°C 92% 12.5 mph S20.1 kmh S 19.0 mph30.6 kmh 29.86 in1011.2 mb 0.02 in0.5 mm 0.08 in2.0 mm 0.04 in1.0 mm
10:15 AM 41.7°F5.4°C 39.6°F4.2°C 92% 12.8 mph S20.6 kmh S 19.0 mph30.6 kmh 29.87 in1011.5 mb 0.00 in0.0 mm 0.00 in0.0 mm 0.02 in0.5 mm
10:00 AM 41.5°F5.3°C 39.4°F4.1°C 92% 10.2 mph S16.4 kmh S 16.3 mph26.2 kmh 29.87 in1011.5 mb 0.00 in0.0 mm 0.00 in0.0 mm 0.02 in0.5 mm
09:45 AM 41.5°F5.3°C 39.4°F4.1°C 92% 11.8 mph S19.0 kmh S 16.6 mph26.7 kmh 29.87 in1011.5 mb 0.00 in0.0 mm 0.00 in0.0 mm 0.02 in0.5 mm
09:30 AM 41.4°F5.2°C 39.2°F4.0°C 92% 12.4 mph SSW20.0 kmh SSW 19.0 mph30.6 kmh 29.86 in1011.2 mb 0.00 in0.0 mm 0.00 in0.0 mm 0.02 in0.5 mm
09:15 AM 41.2°F5.1°C 39.0°F3.9°C 92% 13.0 mph S20.9 kmh S 19.0 mph30.6 kmh 29.86 in1011.2 mb 0.00 in0.0 mm 0.00 in0.0 mm 0.02 in0.5 mm
09:00 AM 41.4°F5.2°C 39.2°F4.0°C 92% 11.8 mph S19.0 kmh S 18.6 mph29.9 kmh 29.86 in1011.2 mb 0.00 in0.0 mm 0.00 in0.0 mm 0.02 in0.5 mm
08:45 AM 41.2°F5.1°C 39.0°F3.9°C 92% 11.9 mph S19.2 kmh S 18.6 mph29.9 kmh 29.86 in1011.2 mb 0.00 in0.0 mm 0.00 in0.0 mm 0.02 in0.5 mm
08:30 AM 40.8°F4.9°C 38.7°F3.7°C 92% 9.1 mph S14.6 kmh S 18.3 mph29.5 kmh 29.86 in1011.2 mb 0.00 in0.0 mm 0.00 in0.0 mm 0.02 in0.5 mm
08:15 AM 40.8°F4.9°C 38.7°F3.7°C 92% 3.7 mph SW6.0 kmh SW 8.9 mph14.3 kmh 29.86 in1011.2 mb 0.02 in0.5 mm 0.00 in0.0 mm 0.02 in0.5 mm
08:00 AM 40.6°F4.8°C 38.5°F3.6°C 92% 5.3 mph SW8.5 kmh SW 11.9 mph19.2 kmh 29.86 in1011.2 mb 0.02 in0.5 mm 0.00 in0.0 mm 0.02 in0.5 mm
07:45 AM 40.6°F4.8°C 38.5°F3.6°C 92% 6.7 mph SSW10.8 kmh SSW 11.9 mph19.2 kmh 29.86 in1011.2 mb 0.02 in0.5 mm 0.00 in0.0 mm 0.02 in0.5 mm
07:30 AM 40.5°F4.7°C 38.3°F3.5°C 92% 8.2 mph SSW13.2 kmh SSW 12.3 mph19.8 kmh 29.86 in1011.2 mb 0.02 in0.5 mm 0.08 in2.0 mm 0.02 in0.5 mm
07:15 AM 40.5°F4.7°C 38.3°F3.5°C 92% 7.1 mph SSW11.4 kmh SSW 14.8 mph23.8 kmh 29.86 in1011.2 mb 0.00 in0.0 mm 0.00 in0.0 mm 0.00 in0.0 mm
07:00 AM 40.5°F4.7°C 38.3°F3.5°C 92% 6.6 mph SW10.6 kmh SW 11.4 mph18.3 kmh 29.86 in1011.2 mb 0.00 in0.0 mm 0.00 in0.0 mm 0.00 in0.0 mm
06:45 AM 40.3°F4.6°C 38.1°F3.4°C 92% 9.0 mph SSW14.5 kmh SSW 15.0 mph24.1 kmh 29.86 in1011.2 mb 0.00 in0.0 mm 0.00 in0.0 mm 0.00 in0.0 mm
06:30 AM 40.3°F4.6°C 38.1°F3.4°C 92% 9.0 mph SSW14.5 kmh SSW 14.3 mph23.0 kmh 29.86 in1011.2 mb 0.00 in0.0 mm 0.00 in0.0 mm 0.00 in0.0 mm
06:15 AM 40.3°F4.6°C 38.1°F3.4°C 92% 8.7 mph S14.0 kmh S 14.5 mph23.3 kmh 29.86 in1011.2 mb 0.00 in0.0 mm 0.00 in0.0 mm 0.00 in0.0 mm
06:00 AM 40.3°F4.6°C 38.1°F3.4°C 92% 7.8 mph S12.6 kmh S 10.7 mph17.2 kmh 29.86 in1011.2 mb 0.00 in0.0 mm 0.00 in0.0 mm 0.00 in0.0 mm
05:45 AM 40.3°F4.6°C 38.1°F3.4°C 92% 6.7 mph SSW10.8 kmh SSW 10.5 mph16.9 kmh 29.86 in1011.2 mb 0.00 in0.0 mm 0.00 in0.0 mm 0.00 in0.0 mm
05:30 AM 40.5°F4.7°C 38.3°F3.5°C 92% 9.4 mph SSW15.1 kmh SSW 15.2 mph24.5 kmh 29.87 in1011.5 mb 0.00 in0.0 mm 0.00 in0.0 mm 0.00 in0.0 mm
05:15 AM 40.5°F4.7°C 38.3°F3.5°C 92% 10.3 mph SSW16.6 kmh SSW 18.6 mph29.9 kmh 29.87 in1011.5 mb 0.00 in0.0 mm 0.00 in0.0 mm 0.00 in0.0 mm
05:00 AM 40.6°F4.8°C 38.5°F3.6°C 92% 10.1 mph SSW16.3 kmh SSW 16.8 mph27.0 kmh 29.87 in1011.5 mb 0.00 in0.0 mm 0.00 in0.0 mm 0.00 in0.0 mm
04:45 AM 40.6°F4.8°C 38.5°F3.6°C 92% 11.6 mph SW18.7 kmh SW 18.8 mph30.3 kmh 29.87 in1011.5 mb 0.00 in0.0 mm 0.00 in0.0 mm 0.00 in0.0 mm
04:30 AM 40.8°F4.9°C 38.7°F3.7°C 92% 8.7 mph SW14.0 kmh SW 15.4 mph24.8 kmh 29.88 in1011.9 mb 0.00 in0.0 mm 0.00 in0.0 mm 0.00 in0.0 mm
04:15 AM 40.6°F4.8°C 38.5°F3.6°C 92% 9.3 mph SSW15.0 kmh SSW 16.8 mph27.0 kmh 29.88 in1011.9 mb 0.00 in0.0 mm 0.00 in0.0 mm 0.00 in0.0 mm
04:00 AM 40.6°F4.8°C 38.5°F3.6°C 92% 7.6 mph SW12.2 kmh SW 13.0 mph20.9 kmh 29.88 in1011.9 mb 0.00 in0.0 mm 0.00 in0.0 mm 0.00 in0.0 mm
03:45 AM 40.8°F4.9°C 38.7°F3.7°C 92% 8.7 mph SW14.0 kmh SW 16.8 mph27.0 kmh 29.88 in1011.9 mb 0.00 in0.0 mm 0.00 in0.0 mm 0.00 in0.0 mm
03:30 AM 40.8°F4.9°C 38.7°F3.7°C 92% 9.1 mph SSW14.6 kmh SSW 15.9 mph25.6 kmh 29.89 in1012.2 mb 0.00 in0.0 mm 0.00 in0.0 mm 0.00 in0.0 mm
03:15 AM 40.8°F4.9°C 38.7°F3.7°C 92% 10.2 mph SSW16.4 kmh SSW 17.9 mph28.8 kmh 29.89 in1012.2 mb 0.00 in0.0 mm 0.00 in0.0 mm 0.00 in0.0 mm
03:00 AM 41.0°F5.0°C 38.9°F3.8°C 92% 10.2 mph SSW16.4 kmh SSW 19.0 mph30.6 kmh 29.90 in1012.5 mb 0.00 in0.0 mm 0.00 in0.0 mm 0.00 in0.0 mm
02:45 AM 41.2°F5.1°C 39.0°F3.9°C 92% 7.8 mph SW12.6 kmh SW 14.5 mph23.3 kmh 29.90 in1012.5 mb 0.00 in0.0 mm 0.00 in0.0 mm 0.00 in0.0 mm
02:30 AM 41.2°F5.1°C 39.0°F3.9°C 92% 7.6 mph SW12.2 kmh SW 15.9 mph25.6 kmh 29.91 in1012.9 mb 0.00 in0.0 mm 0.00 in0.0 mm 0.00 in0.0 mm
02:15 AM 41.4°F5.2°C 39.2°F4.0°C 92% 9.5 mph SW15.3 kmh SW 17.2 mph27.7 kmh 29.91 in1012.9 mb 0.00 in0.0 mm 0.00 in0.0 mm 0.00 in0.0 mm
02:00 AM 41.4°F5.2°C 39.2°F4.0°C 92% 9.0 mph SW14.5 kmh SW 17.0 mph27.4 kmh 29.91 in1012.9 mb 0.00 in0.0 mm 0.00 in0.0 mm 0.00 in0.0 mm
01:45 AM 41.4°F5.2°C 39.2°F4.0°C 92% 9.3 mph SSW15.0 kmh SSW 17.0 mph27.4 kmh 29.91 in1012.9 mb 0.00 in0.0 mm 0.00 in0.0 mm 0.00 in0.0 mm
01:30 AM 41.5°F5.3°C 39.4°F4.1°C 92% 11.3 mph S18.2 kmh S 17.0 mph27.4 kmh 29.91 in1012.9 mb 0.00 in0.0 mm 0.00 in0.0 mm 0.00 in0.0 mm
01:15 AM 41.5°F5.3°C 39.4°F4.1°C 92% 8.9 mph SSW14.3 kmh SSW 17.7 mph28.5 kmh 29.92 in1013.2 mb 0.00 in0.0 mm 0.00 in0.0 mm 0.00 in0.0 mm
01:00 AM 41.7°F5.4°C 39.6°F4.2°C 92% 12.0 mph SSW19.3 kmh SSW 20.1 mph32.3 kmh 29.92 in1013.2 mb 0.00 in0.0 mm 0.00 in0.0 mm 0.00 in0.0 mm
12:45 AM 41.7°F5.4°C 39.6°F4.2°C 92% 12.5 mph SSW20.1 kmh SSW 18.8 mph30.3 kmh 29.92 in1013.2 mb 0.00 in0.0 mm 0.00 in0.0 mm 0.00 in0.0 mm
12:30 AM 41.9°F5.5°C 39.7°F4.3°C 92% 13.0 mph SSW20.9 kmh SSW 22.4 mph36.0 kmh 29.92 in1013.2 mb 0.00 in0.0 mm 0.00 in0.0 mm 0.00 in0.0 mm
12:15 AM 41.7°F5.4°C 39.6°F4.2°C 92% 14.3 mph SSW23.0 kmh SSW 26.2 mph42.2 kmh 29.92 in1013.2 mb 0.00 in0.0 mm 0.00 in0.0 mm 0.00 in0.0 mm
12:00 AM 41.7°F5.4°C 39.6°F4.2°C 92% 11.5 mph SSW18.5 kmh SSW 18.3 mph29.5 kmh 29.92 in1013.2 mb 0.00 in0.0 mm 0.00 in0.0 mm 0.00 in0.0 mm